Time;durP1;ratioP1;P1;durP2;ratioP2;P2;SDS_P1;SDS_P2;PMS_P1;PMS_P2;Temp;Humidity;BMP_temperature;BMP_pressure;BME280_temperature;BME280_humidity;BME280_pressure;Samples;Min_cycle;Max_cycle;Signal;HPM_P1;HPM_P2
2023/12/05 00:02:08;;;;;;;26.25;17.45;;;;;;;;;;5069854;28;20816;-83
2023/12/05 00:04:36;;;;;;;28.67;18.85;;;;;;;;;;5058242;28;20419;-82
2023/12/05 00:07:02;;;;;;;28.63;18.73;;;;;;;;;;5055213;28;20402;-82
2023/12/05 00:09:28;;;;;;;27.98;18.77;;;;;;;;;;5057793;28;20400;-82
2023/12/05 00:11:54;;;;;;;27.93;18.63;;;;;;;;;;5075589;28;20433;-82
2023/12/05 00:14:20;;;;;;;29.42;18.52;;;;;;;;;;5097471;28;20426;-82
2023/12/05 00:16:46;;;;;;;27.73;18.83;;;;;;;;;;5083312;28;20754;-82
2023/12/05 00:19:12;;;;;;;29.85;19.35;;;;;;;;;;5071861;28;20400;-83
2023/12/05 00:21:38;;;;;;;25.38;18.55;;;;;;;;;;5082793;28;20508;-82
2023/12/05 00:24:04;;;;;;;27.03;18.63;;;;;;;;;;5058714;28;20423;-82
2023/12/05 00:26:32;;;;;;;27.48;19.38;;;;;;;;;;5088114;28;20407;-82
2023/12/05 00:28:58;;;;;;;28.30;19.08;;;;;;;;;;5054669;28;20751;-82
2023/12/05 00:31:24;;;;;;;26.73;18.00;;;;;;;;;;5071258;28;20418;-82
2023/12/05 00:33:50;;;;;;;26.85;19.08;;;;;;;;;;5086519;28;20423;-82
2023/12/05 00:36:17;;;;;;;28.20;18.50;;;;;;;;;;5069796;28;20429;-83
2023/12/05 00:38:43;;;;;;;27.05;18.88;;;;;;;;;;5071067;28;20430;-82
2023/12/05 00:41:09;;;;;;;28.35;17.73;;;;;;;;;;5077320;28;20403;-82
2023/12/05 00:43:36;;;;;;;25.63;17.80;;;;;;;;;;5070634;28;20404;-82
2023/12/05 00:46:02;;;;;;;26.52;18.92;;;;;;;;;;5078618;28;20722;-83
2023/12/05 00:48:28;;;;;;;26.38;18.88;;;;;;;;;;5091182;28;20462;-82
2023/12/05 00:50:55;;;;;;;26.58;17.25;;;;;;;;;;5057231;28;20736;-83
2023/12/05 00:53:21;;;;;;;26.88;17.58;;;;;;;;;;5036587;28;20423;-82
2023/12/05 00:55:47;;;;;;;26.33;18.60;;;;;;;;;;5052832;28;20494;-82
2023/12/05 00:58:13;;;;;;;27.98;18.75;;;;;;;;;;5053765;28;20888;-82
2023/12/05 01:00:39;;;;;;;29.33;20.08;;;;;;;;;;5054066;28;20404;-82
2023/12/05 01:03:05;;;;;;;27.37;18.93;;;;;;;;;;5069699;28;20465;-82
2023/12/05 01:05:33;;;;;;;28.00;20.55;;;;;;;;;;5073646;28;20398;-82
2023/12/05 01:07:59;;;;;;;29.35;20.98;;;;;;;;;;5069056;28;20408;-82
2023/12/05 01:10:25;;;;;;;32.47;21.42;;;;;;;;;;5068523;28;20533;-82
2023/12/05 01:12:51;;;;;;;29.05;21.17;;;;;;;;;;5078103;28;20424;-82
2023/12/05 01:15:17;;;;;;;30.17;21.90;;;;;;;;;;5053533;28;20402;-82
2023/12/05 01:17:43;;;;;;;31.45;21.80;;;;;;;;;;5086650;28;20406;-82
2023/12/05 01:20:12;;;;;;;30.35;20.70;;;;;;;;;;5073504;28;20413;-82
2023/12/05 01:22:39;;;;;;;31.23;23.63;;;;;;;;;;5074030;28;20915;-82
2023/12/05 01:25:08;;;;;;;30.40;21.98;;;;;;;;;;5071335;28;20483;-82
2023/12/05 01:27:34;;;;;;;32.50;23.17;;;;;;;;;;5049971;28;20421;-82
2023/12/05 01:30:00;;;;;;;32.60;23.05;;;;;;;;;;5104709;28;20401;-82
2023/12/05 01:32:26;;;;;;;32.73;22.50;;;;;;;;;;5079966;28;20426;-82
2023/12/05 01:34:52;;;;;;;32.47;22.60;;;;;;;;;;5069370;28;20469;-83
2023/12/05 01:37:18;;;;;;;34.55;24.38;;;;;;;;;;5069841;28;20478;-82
2023/12/05 01:39:44;;;;;;;33.10;24.20;;;;;;;;;;5053056;28;20445;-82
2023/12/05 01:42:10;;;;;;;36.50;24.25;;;;;;;;;;5070443;28;20424;-82
2023/12/05 01:44:37;;;;;;;33.67;23.98;;;;;;;;;;5070011;28;20400;-82
2023/12/05 01:47:03;;;;;;;33.42;23.13;;;;;;;;;;5052260;28;20441;-81
2023/12/05 01:49:33;;;;;;;34.50;24.80;;;;;;;;;;5069690;28;20411;-82
2023/12/05 01:51:59;;;;;;;34.95;23.02;;;;;;;;;;5070747;28;20403;-81
2023/12/05 01:54:26;;;;;;;34.90;25.48;;;;;;;;;;5069384;28;20423;-82
2023/12/05 01:56:54;;;;;;;38.07;25.60;;;;;;;;;;5063969;28;20604;-82
2023/12/05 01:59:20;;;;;;;39.57;26.77;;;;;;;;;;5086438;28;20404;-81
2023/12/05 02:01:46;;;;;;;38.58;27.27;;;;;;;;;;5069153;28;20807;-81
2023/12/05 02:04:12;;;;;;;40.65;28.30;;;;;;;;;;5086232;28;20428;-81
2023/12/05 02:06:38;;;;;;;37.35;26.92;;;;;;;;;;5053226;28;20820;-82
2023/12/05 02:09:04;;;;;;;37.95;25.25;;;;;;;;;;5070585;28;20478;-82
2023/12/05 02:11:32;;;;;;;39.10;26.60;;;;;;;;;;5081187;28;20398;-81
2023/12/05 02:13:59;;;;;;;38.03;26.75;;;;;;;;;;5065119;28;20515;-81
2023/12/05 02:16:31;;;;;;;40.38;26.40;;;;;;;;;;5067772;28;20891;-82
2023/12/05 02:19:18;;;;;;;38.45;25.83;;;;;;;;;;5098181;28;20406;-82
2023/12/05 02:21:46;;;;;;;38.33;26.67;;;;;;;;;;5077151;28;20453;-82
2023/12/05 02:24:25;;;;;;;42.30;26.50;;;;;;;;;;5070102;28;20568;-82
2023/12/05 02:26:58;;;;;;;40.00;25.98;;;;;;;;;;5064476;28;20918;-82
2023/12/05 02:29:25;;;;;;;41.92;26.08;;;;;;;;;;5072436;28;20903;-82
2023/12/05 02:31:51;;;;;;;41.33;25.40;;;;;;;;;;5073224;28;20437;-82
2023/12/05 02:34:17;;;;;;;39.42;27.45;;;;;;;;;;5089745;28;20492;-83
2023/12/05 02:36:50;;;;;;;41.15;26.48;;;;;;;;;;5072349;28;20395;-82
2023/12/05 02:39:24;;;;;;;40.92;26.48;;;;;;;;;;5088318;28;20978;-82
2023/12/05 02:41:53;;;;;;;41.65;25.27;;;;;;;;;;5056371;28;20398;-82
2023/12/05 02:44:21;;;;;;;41.90;25.67;;;;;;;;;;5054651;28;20439;-82
2023/12/05 02:46:48;;;;;;;45.20;27.00;;;;;;;;;;5073262;28;20487;-82
2023/12/05 02:49:14;;;;;;;43.33;26.60;;;;;;;;;;5081959;28;20795;-82
2023/12/05 02:51:41;;;;;;;46.25;27.20;;;;;;;;;;5091198;28;20406;-82
2023/12/05 02:54:07;;;;;;;41.73;25.93;;;;;;;;;;5082353;28;20469;-81
2023/12/05 02:56:38;;;;;;;43.85;28.27;;;;;;;;;;5070040;28;20419;-82
2023/12/05 02:59:04;;;;;;;44.42;28.55;;;;;;;;;;5123511;27;20434;-82
2023/12/05 03:01:30;;;;;;;46.55;28.38;;;;;;;;;;5089495;28;20815;-82
2023/12/05 03:03:56;;;;;;;48.65;30.40;;;;;;;;;;5085001;28;20853;-82
2023/12/05 03:06:22;;;;;;;51.17;30.52;;;;;;;;;;5072023;28;20468;-82
2023/12/05 03:08:49;;;;;;;52.72;30.30;;;;;;;;;;5072519;28;20478;-82
2023/12/05 03:11:15;;;;;;;52.58;29.50;;;;;;;;;;5088856;28;20434;-82
2023/12/05 03:13:41;;;;;;;55.97;30.05;;;;;;;;;;5072937;28;20840;-82
2023/12/05 03:16:08;;;;;;;52.65;30.48;;;;;;;;;;5072601;28;20752;-82
2023/12/05 03:18:34;;;;;;;56.55;30.15;;;;;;;;;;5077743;28;20416;-82
2023/12/05 03:21:00;;;;;;;53.53;28.40;;;;;;;;;;5074470;28;20733;-82
2023/12/05 03:23:27;;;;;;;56.77;30.30;;;;;;;;;;5038926;28;21054;-82
2023/12/05 03:25:53;;;;;;;55.40;34.60;;;;;;;;;;5070396;28;20492;-83
2023/12/05 03:28:19;;;;;;;55.28;29.25;;;;;;;;;;5054244;28;20479;-82
2023/12/05 03:30:45;;;;;;;55.85;33.03;;;;;;;;;;5065044;28;20413;-83
2023/12/05 03:33:11;;;;;;;53.70;28.27;;;;;;;;;;5081976;28;20977;-83
2023/12/05 03:35:37;;;;;;;54.20;28.63;;;;;;;;;;5106187;27;20407;-83
2023/12/05 03:38:03;;;;;;;53.58;28.17;;;;;;;;;;5071210;28;20409;-83
2023/12/05 03:40:29;;;;;;;51.67;28.77;;;;;;;;;;5072346;28;20453;-83
2023/12/05 03:42:55;;;;;;;51.47;30.50;;;;;;;;;;5059910;28;20478;-83
2023/12/05 03:45:21;;;;;;;54.07;28.53;;;;;;;;;;5058471;28;20424;-83
2023/12/05 03:47:47;;;;;;;51.72;28.65;;;;;;;;;;5038435;28;20412;-83
2023/12/05 03:50:13;;;;;;;51.00;28.52;;;;;;;;;;5036224;28;20416;-83
2023/12/05 03:52:39;;;;;;;49.58;26.83;;;;;;;;;;5071675;28;20407;-81
2023/12/05 03:55:05;;;;;;;49.53;28.02;;;;;;;;;;5071335;28;20404;-83
2023/12/05 03:57:31;;;;;;;50.45;27.75;;;;;;;;;;5071261;28;20946;-83
2023/12/05 03:59:58;;;;;;;49.75;31.20;;;;;;;;;;5054739;28;20485;-83
2023/12/05 04:02:24;;;;;;;50.90;27.77;;;;;;;;;;5088584;28;20895;-83
2023/12/05 04:04:50;;;;;;;50.92;30.90;;;;;;;;;;5055196;28;20402;-83
2023/12/05 04:07:16;;;;;;;47.60;29.02;;;;;;;;;;5061268;28;20402;-83
2023/12/05 04:09:42;;;;;;;53.17;28.53;;;;;;;;;;5068626;28;20479;-83
2023/12/05 04:12:08;;;;;;;49.95;29.10;;;;;;;;;;5073918;28;20427;-83
2023/12/05 04:14:34;;;;;;;47.45;26.92;;;;;;;;;;5076595;28;20818;-83
2023/12/05 04:17:00;;;;;;;48.78;28.92;;;;;;;;;;5091642;28;20402;-82
2023/12/05 04:19:26;;;;;;;49.17;26.98;;;;;;;;;;5078123;28;20428;-83
2023/12/05 04:21:52;;;;;;;45.92;26.60;;;;;;;;;;5069160;28;20404;-82
2023/12/05 04:24:18;;;;;;;51.03;29.75;;;;;;;;;;5078584;28;20418;-83
2023/12/05 04:26:44;;;;;;;48.80;26.05;;;;;;;;;;5062035;28;20399;-83
2023/12/05 04:29:10;;;;;;;48.27;26.93;;;;;;;;;;5076991;28;20477;-83
2023/12/05 04:31:36;;;;;;;47.58;27.70;;;;;;;;;;5059905;28;20415;-83
2023/12/05 04:34:02;;;;;;;48.67;27.15;;;;;;;;;;5053961;28;20416;-82
2023/12/05 04:36:28;;;;;;;48.28;28.05;;;;;;;;;;5070981;28;21148;-83
2023/12/05 04:38:54;;;;;;;47.00;28.48;;;;;;;;;;5070964;28;20454;-82
2023/12/05 04:41:20;;;;;;;51.15;27.27;;;;;;;;;;5055268;28;20415;-81
2023/12/05 04:43:46;;;;;;;49.38;28.38;;;;;;;;;;5071228;28;20411;-82
2023/12/05 04:46:12;;;;;;;46.33;26.80;;;;;;;;;;5088410;28;20460;-83
2023/12/05 04:48:38;;;;;;;44.33;25.60;;;;;;;;;;5063901;28;20739;-82
2023/12/05 04:51:05;;;;;;;47.28;26.65;;;;;;;;;;5076087;28;20970;-82
2023/12/05 04:53:31;;;;;;;50.50;29.95;;;;;;;;;;5059308;28;20421;-83
2023/12/05 04:55:57;;;;;;;47.75;28.45;;;;;;;;;;5066111;28;20476;-82
2023/12/05 04:58:23;;;;;;;45.57;28.23;;;;;;;;;;5076810;28;21037;-83
2023/12/05 05:00:49;;;;;;;49.42;27.75;;;;;;;;;;5067771;28;20483;-82
2023/12/05 05:03:17;;;;;;;49.30;28.95;;;;;;;;;;5055112;28;20923;-82
2023/12/05 05:05:43;;;;;;;51.08;28.75;;;;;;;;;;5071031;28;20404;-80
2023/12/05 05:08:09;;;;;;;48.30;28.30;;;;;;;;;;5074733;28;20497;-83
2023/12/05 05:10:35;;;;;;;55.45;29.33;;;;;;;;;;5074870;28;20407;-82
2023/12/05 05:13:01;;;;;;;50.10;28.42;;;;;;;;;;5082198;28;20418;-83
2023/12/05 05:15:27;;;;;;;50.15;29.08;;;;;;;;;;5054837;28;20453;-82
2023/12/05 05:17:53;;;;;;;51.85;29.08;;;;;;;;;;5090634;28;20405;-82
2023/12/05 05:20:20;;;;;;;51.20;27.27;;;;;;;;;;5064323;28;20425;-82
2023/12/05 05:22:46;;;;;;;50.13;27.50;;;;;;;;;;5063914;28;20401;-82
2023/12/05 05:25:12;;;;;;;51.63;29.73;;;;;;;;;;5038772;28;20401;-82
2023/12/05 05:27:38;;;;;;;49.13;27.90;;;;;;;;;;5086960;28;20530;-82
2023/12/05 05:30:05;;;;;;;45.97;27.48;;;;;;;;;;5053595;28;20403;-82
2023/12/05 05:32:31;;;;;;;47.83;27.58;;;;;;;;;;5070245;28;20797;-83
2023/12/05 05:34:57;;;;;;;48.40;27.60;;;;;;;;;;5070355;28;20419;-83
2023/12/05 05:37:23;;;;;;;67.82;29.35;;;;;;;;;;5070597;28;20895;-82
2023/12/05 05:39:49;;;;;;;47.38;26.42;;;;;;;;;;5052747;28;20424;-82
2023/12/05 05:42:15;;;;;;;54.25;28.48;;;;;;;;;;5063986;28;20413;-82
2023/12/05 05:44:41;;;;;;;48.58;28.08;;;;;;;;;;5071965;28;20451;-83
2023/12/05 05:47:07;;;;;;;48.30;26.95;;;;;;;;;;5070025;28;20741;-83
2023/12/05 05:49:33;;;;;;;57.08;30.17;;;;;;;;;;5070172;28;20411;-83
2023/12/05 05:51:59;;;;;;;161.70;35.67;;;;;;;;;;5081802;28;20477;-83
2023/12/05 05:54:25;;;;;;;73.85;29.88;;;;;;;;;;5093133;28;20484;-83
2023/12/05 05:56:52;;;;;;;54.60;28.80;;;;;;;;;;5084510;28;20454;-81
2023/12/05 05:59:18;;;;;;;55.55;27.77;;;;;;;;;;5076925;28;20549;-82
2023/12/05 06:01:46;;;;;;;66.63;28.52;;;;;;;;;;5088370;28;20404;-82
2023/12/05 06:04:13;;;;;;;51.80;27.17;;;;;;;;;;5070116;28;20566;-82
2023/12/05 06:06:39;;;;;;;58.90;27.35;;;;;;;;;;5074998;28;20400;-82
2023/12/05 06:09:05;;;;;;;51.08;28.60;;;;;;;;;;5075179;28;20403;-82
2023/12/05 06:11:31;;;;;;;61.88;29.52;;;;;;;;;;5072410;28;20398;-83
2023/12/05 06:13:57;;;;;;;131.85;34.90;;;;;;;;;;5059028;28;20431;-83
2023/12/05 06:16:23;;;;;;;53.47;27.23;;;;;;;;;;5107455;28;20391;-83
2023/12/05 06:18:49;;;;;;;65.28;29.58;;;;;;;;;;5090620;28;20499;-83
2023/12/05 06:21:16;;;;;;;54.47;29.15;;;;;;;;;;5085766;28;21011;-80
2023/12/05 06:23:43;;;;;;;53.05;28.10;;;;;;;;;;5091469;28;20406;-81
2023/12/05 06:26:09;;;;;;;50.83;28.40;;;;;;;;;;5071910;28;20418;-82
2023/12/05 06:28:35;;;;;;;61.72;29.33;;;;;;;;;;5073964;28;20398;-83
2023/12/05 06:31:01;;;;;;;60.30;29.40;;;;;;;;;;5067174;28;20407;-83
2023/12/05 06:33:27;;;;;;;54.85;28.73;;;;;;;;;;5063644;28;20431;-77
2023/12/05 06:35:53;;;;;;;54.13;29.20;;;;;;;;;;5071353;28;20399;-77
2023/12/05 06:38:19;;;;;;;58.30;28.35;;;;;;;;;;5091090;28;20411;-82
2023/12/05 06:40:45;;;;;;;53.83;28.98;;;;;;;;;;5069044;28;20459;-83
2023/12/05 06:43:11;;;;;;;56.92;28.90;;;;;;;;;;5120953;27;20428;-82
2023/12/05 06:45:37;;;;;;;103.40;32.42;;;;;;;;;;5088771;28;20454;-82
2023/12/05 06:48:04;;;;;;;53.20;29.02;;;;;;;;;;5072631;28;20744;-83
2023/12/05 06:50:30;;;;;;;52.88;28.35;;;;;;;;;;5090529;28;20913;-81
2023/12/05 06:52:57;;;;;;;59.22;29.45;;;;;;;;;;5072429;28;20400;-82
2023/12/05 06:55:27;;;;;;;57.75;30.65;;;;;;;;;;5089559;28;20511;-83
2023/12/05 06:57:53;;;;;;;54.78;29.67;;;;;;;;;;5095815;28;20401;-83
2023/12/05 07:00:19;;;;;;;64.65;32.33;;;;;;;;;;5109825;27;20475;-82
2023/12/05 07:02:45;;;;;;;60.95;32.40;;;;;;;;;;5072941;28;20399;-82
2023/12/05 07:05:15;;;;;;;64.32;34.00;;;;;;;;;;5067024;28;20423;-82
2023/12/05 07:07:41;;;;;;;62.47;33.13;;;;;;;;;;5105049;28;20396;-82
2023/12/05 07:10:07;;;;;;;58.65;30.35;;;;;;;;;;5073143;28;20755;-82
2023/12/05 07:12:33;;;;;;;106.77;33.27;;;;;;;;;;5073455;28;20407;-84
2023/12/05 07:14:59;;;;;;;60.30;30.77;;;;;;;;;;5076373;28;20420;-81
2023/12/05 07:17:25;;;;;;;56.20;30.77;;;;;;;;;;5079944;28;20402;-78
2023/12/05 07:19:51;;;;;;;58.45;31.15;;;;;;;;;;5060306;28;20545;-77
2023/12/05 07:22:17;;;;;;;55.90;30.45;;;;;;;;;;5070251;28;20513;-76
2023/12/05 07:24:43;;;;;;;60.27;30.50;;;;;;;;;;5053017;28;20415;-77
2023/12/05 07:27:10;;;;;;;53.45;28.55;;;;;;;;;;5072034;28;20400;-77
2023/12/05 07:29:36;;;;;;;52.63;28.23;;;;;;;;;;5071478;28;20411;-76
2023/12/05 07:32:02;;;;;;;60.60;31.63;;;;;;;;;;5074262;28;20417;-77
2023/12/05 07:34:28;;;;;;;66.40;31.00;;;;;;;;;;5104111;28;20754;-76
2023/12/05 07:36:54;;;;;;;53.67;28.50;;;;;;;;;;5063125;28;20394;-77
2023/12/05 07:39:20;;;;;;;57.85;33.65;;;;;;;;;;5088743;28;20404;-76
2023/12/05 07:41:46;;;;;;;55.22;30.98;;;;;;;;;;5087987;28;20391;-78
2023/12/05 07:44:12;;;;;;;57.97;30.93;;;;;;;;;;5079202;28;20417;-77
2023/12/05 07:46:42;;;;;;;57.72;32.40;;;;;;;;;;5073388;28;20415;-77
2023/12/05 07:49:08;;;;;;;50.28;28.40;;;;;;;;;;5072913;28;20729;-77
2023/12/05 07:51:34;;;;;;;53.55;28.92;;;;;;;;;;5072324;28;20412;-76
2023/12/05 07:54:00;;;;;;;57.17;30.20;;;;;;;;;;5070226;28;20474;-76
2023/12/05 07:56:26;;;;;;;56.10;31.65;;;;;;;;;;5062039;28;20402;-76
2023/12/05 07:58:52;;;;;;;50.23;28.43;;;;;;;;;;5074646;28;20499;-76
2023/12/05 08:01:18;;;;;;;53.53;28.85;;;;;;;;;;5068902;28;20561;-76
2023/12/05 08:03:44;;;;;;;53.75;29.85;;;;;;;;;;5071150;28;20404;-76
2023/12/05 08:06:10;;;;;;;56.93;29.97;;;;;;;;;;5070101;28;20453;-76
2023/12/05 08:08:36;;;;;;;56.97;32.00;;;;;;;;;;5052471;28;20424;-76
2023/12/05 08:11:02;;;;;;;64.88;34.85;;;;;;;;;;5065915;28;20432;-76
2023/12/05 08:13:29;;;;;;;59.50;31.88;;;;;;;;;;5065055;28;20453;-77
2023/12/05 08:15:55;;;;;;;49.97;27.70;;;;;;;;;;5072113;28;20410;-77
2023/12/05 08:18:21;;;;;;;55.53;31.73;;;;;;;;;;5069960;28;20403;-77
2023/12/05 08:20:47;;;;;;;51.95;29.55;;;;;;;;;;5070059;28;20427;-82
2023/12/05 08:23:13;;;;;;;49.72;29.65;;;;;;;;;;5053722;28;20403;-82
2023/12/05 08:25:39;;;;;;;48.60;28.77;;;;;;;;;;5069818;28;20414;-82
2023/12/05 08:28:05;;;;;;;42.57;25.13;;;;;;;;;;5068570;28;20932;-82
2023/12/05 08:30:31;;;;;;;47.55;27.35;;;;;;;;;;5065944;28;20941;-82
2023/12/05 08:32:58;;;;;;;41.97;24.23;;;;;;;;;;5070073;28;20399;-83
2023/12/05 08:35:24;;;;;;;45.20;26.58;;;;;;;;;;5068865;28;20449;-82
2023/12/05 08:37:50;;;;;;;40.63;25.13;;;;;;;;;;5051298;28;20440;-83
2023/12/05 08:40:17;;;;;;;41.13;24.73;;;;;;;;;;5050444;28;20410;-82
2023/12/05 08:42:43;;;;;;;41.15;24.27;;;;;;;;;;5087840;28;20431;-82
2023/12/05 08:45:11;;;;;;;43.95;25.98;;;;;;;;;;5071163;28;20399;-82
2023/12/05 08:47:40;;;;;;;41.55;24.92;;;;;;;;;;5088024;28;20756;-81
2023/12/05 08:50:07;;;;;;;41.65;24.13;;;;;;;;;;5051832;28;20506;-82
2023/12/05 08:52:33;;;;;;;45.95;24.95;;;;;;;;;;5083580;28;20398;-83
2023/12/05 08:55:00;;;;;;;41.05;24.88;;;;;;;;;;5058818;28;20424;-83
2023/12/05 08:57:28;;;;;;;41.47;23.85;;;;;;;;;;5086754;28;20412;-83
2023/12/05 08:59:54;;;;;;;44.13;25.67;;;;;;;;;;5070686;28;20453;-82
2023/12/05 09:02:21;;;;;;;41.15;24.42;;;;;;;;;;5071080;28;20408;-83
2023/12/05 09:04:47;;;;;;;43.17;24.58;;;;;;;;;;5071228;28;20476;-83
2023/12/05 09:07:13;;;;;;;39.75;24.55;;;;;;;;;;5086532;28;20499;-82
2023/12/05 09:09:42;;;;;;;40.83;24.45;;;;;;;;;;5068636;28;20474;-83
2023/12/05 09:12:08;;;;;;;41.35;24.55;;;;;;;;;;5067531;28;20426;-83
2023/12/05 09:14:35;;;;;;;41.35;24.33;;;;;;;;;;5051628;28;20418;-83
2023/12/05 09:17:01;;;;;;;41.13;24.88;;;;;;;;;;5052919;28;20892;-83
2023/12/05 09:19:27;;;;;;;42.03;25.33;;;;;;;;;;5052161;28;20784;-83
2023/12/05 09:21:53;;;;;;;39.03;23.55;;;;;;;;;;5067960;28;20408;-84
2023/12/05 09:24:19;;;;;;;48.83;25.35;;;;;;;;;;5053181;28;20458;-84
2023/12/05 09:26:46;;;;;;;40.17;23.50;;;;;;;;;;5085594;28;20407;-82
2023/12/05 09:29:13;;;;;;;40.88;23.77;;;;;;;;;;5090883;28;20428;-82
2023/12/05 09:31:39;;;;;;;39.67;24.20;;;;;;;;;;5055222;28;20422;-84
2023/12/05 09:34:05;;;;;;;41.58;23.88;;;;;;;;;;5069187;28;20428;-83
2023/12/05 09:36:31;;;;;;;39.60;23.43;;;;;;;;;;5057066;28;20932;-83
2023/12/05 09:38:57;;;;;;;38.97;23.70;;;;;;;;;;5069841;28;20400;-83
2023/12/05 09:41:23;;;;;;;40.65;25.15;;;;;;;;;;5052784;28;20922;-82
2023/12/05 09:43:51;;;;;;;44.90;25.52;;;;;;;;;;5067395;28;20437;-83
2023/12/05 09:46:18;;;;;;;39.75;23.33;;;;;;;;;;5103333;28;20408;-83
2023/12/05 09:48:48;;;;;;;40.60;23.67;;;;;;;;;;5086348;28;20403;-82
2023/12/05 09:51:18;;;;;;;39.92;23.85;;;;;;;;;;5069725;28;20745;-83
2023/12/05 09:53:45;;;;;;;38.83;23.58;;;;;;;;;;5036843;28;20436;-82
2023/12/05 09:56:13;;;;;;;37.55;22.83;;;;;;;;;;5078523;28;20422;-83
2023/12/05 09:58:43;;;;;;;39.57;24.33;;;;;;;;;;5067638;28;20423;-80
2023/12/05 10:01:10;;;;;;;39.50;24.02;;;;;;;;;;5067360;28;20464;-82
2023/12/05 10:03:37;;;;;;;38.65;23.08;;;;;;;;;;5069435;28;20483;-81
2023/12/05 10:06:06;;;;;;;38.42;22.80;;;;;;;;;;5052498;28;20411;-82
2023/12/05 10:08:33;;;;;;;39.05;23.02;;;;;;;;;;5083370;28;20481;-83
2023/12/05 10:11:00;;;;;;;40.30;22.90;;;;;;;;;;5085728;28;20395;-82
2023/12/05 10:13:26;;;;;;;40.45;23.67;;;;;;;;;;5085203;28;20427;-83
2023/12/05 10:15:53;;;;;;;37.38;22.50;;;;;;;;;;5067802;28;20428;-82
2023/12/05 10:18:19;;;;;;;38.83;23.23;;;;;;;;;;5085826;28;20427;-81
2023/12/05 10:20:45;;;;;;;39.47;24.58;;;;;;;;;;5068482;28;20408;-81
2023/12/05 10:23:12;;;;;;;39.35;24.55;;;;;;;;;;5068479;28;20408;-82
2023/12/05 10:25:38;;;;;;;40.38;24.25;;;;;;;;;;5066193;28;20435;-81
2023/12/05 10:28:05;;;;;;;37.20;23.10;;;;;;;;;;5050812;28;20469;-79
2023/12/05 10:30:32;;;;;;;42.25;25.70;;;;;;;;;;5034080;28;20416;-82
2023/12/05 10:33:11;;;;;;;42.50;26.00;;;;;;;;;;5067605;28;20460;-80
2023/12/05 10:35:38;;;;;;;40.67;23.80;;;;;;;;;;5066486;28;20908;-81
2023/12/05 10:38:05;;;;;;;41.83;26.13;;;;;;;;;;5035161;28;20399;-80
2023/12/05 10:40:49;;;;;;;39.05;23.90;;;;;;;;;;5070414;28;20435;-81
2023/12/05 10:43:15;;;;;;;40.25;24.35;;;;;;;;;;5071187;28;20412;-79
2023/12/05 10:45:41;;;;;;;42.22;26.02;;;;;;;;;;5066539;28;20428;-81
2023/12/05 10:48:07;;;;;;;39.08;22.80;;;;;;;;;;5071087;28;20499;-80
2023/12/05 10:50:33;;;;;;;43.80;26.25;;;;;;;;;;5069517;28;20411;-80
2023/12/05 10:53:00;;;;;;;43.80;26.88;;;;;;;;;;5087943;28;20411;-81
2023/12/05 10:55:26;;;;;;;41.05;24.08;;;;;;;;;;5087675;28;20412;-81
2023/12/05 10:58:01;;;;;;;38.28;23.13;;;;;;;;;;5038110;28;20490;-81
2023/12/05 11:00:31;;;;;;;39.63;23.25;;;;;;;;;;5068997;28;20456;-82
2023/12/05 11:02:57;;;;;;;40.60;23.65;;;;;;;;;;5070761;28;20403;-80
2023/12/05 11:05:24;;;;;;;42.35;25.88;;;;;;;;;;5068038;28;21098;-82
2023/12/05 11:07:51;;;;;;;40.65;25.30;;;;;;;;;;5094395;28;20825;-81
2023/12/05 11:10:17;;;;;;;41.17;25.40;;;;;;;;;;5074540;28;20431;-80
2023/12/05 11:12:45;;;;;;;39.42;24.00;;;;;;;;;;5076339;28;20396;-80
2023/12/05 11:15:12;;;;;;;38.50;22.83;;;;;;;;;;5101085;28;20566;-81
2023/12/05 11:17:40;;;;;;;40.15;22.92;;;;;;;;;;5076356;28;20438;-81
2023/12/05 11:20:25;;;;;;;41.30;24.95;;;;;;;;;;5058621;28;20465;-81
2023/12/05 11:23:00;;;;;;;41.13;24.27;;;;;;;;;;5062533;28;20468;-82
2023/12/05 11:25:45;;;;;;;41.40;23.17;;;;;;;;;;5061840;28;20465;-82
2023/12/05 11:28:17;;;;;;;39.03;23.00;;;;;;;;;;5070060;28;20768;-80
2023/12/05 11:30:46;;;;;;;40.40;23.42;;;;;;;;;;5101559;27;20400;-80
2023/12/05 11:33:40;;;;;;;40.97;24.80;;;1.10;99.90;;;;;;5087663;28;20427;-83
2023/12/05 11:36:28;;;;;;;42.95;24.90;;;;;;;;;;5101932;28;20428;-82
2023/12/05 11:38:55;;;;;;;40.87;24.03;;;;;;;;;;5065615;28;20401;-81
2023/12/05 11:41:21;;;;;;;40.95;23.63;;;;;;;;;;5057342;28;20390;-82
2023/12/05 11:44:12;;;;;;;42.08;23.75;;;1.30;99.90;;;;;;5070888;28;20408;-82
2023/12/05 11:46:38;;;;;;;42.05;23.98;;;;;;;;;;5070083;28;20431;-81
2023/12/05 11:49:04;;;;;;;44.13;24.70;;;;;;;;;;5078722;28;20853;-81
2023/12/05 11:51:31;;;;;;;41.22;23.05;;;;;;;;;;5078087;28;20460;-82
2023/12/05 11:53:57;;;;;;;41.88;24.02;;;;;;;;;;5070870;28;20514;-83
2023/12/05 11:56:23;;;;;;;40.67;23.77;;;;;;;;;;5070431;28;20477;-81
2023/12/05 11:58:49;;;;;;;39.90;23.20;;;;;;;;;;5069427;28;20415;-81
2023/12/05 12:01:15;;;;;;;42.42;24.33;;;;;;;;;;5086729;28;20929;-81
2023/12/05 12:03:46;;;;;;;41.08;23.95;;;;;;;;;;5053796;28;20435;-82
2023/12/05 12:06:12;;;;;;;42.95;24.13;;;;;;;;;;5082872;28;20455;-81
2023/12/05 12:08:39;;;;;;;42.22;23.33;;;;;;;;;;5066572;28;20507;-81
2023/12/05 12:11:05;;;;;;;40.85;23.58;;;;;;;;;;5087040;28;20875;-82
2023/12/05 12:13:32;;;;;;;42.80;24.60;;;;;;;;;;5072545;28;20511;-81
2023/12/05 12:15:58;;;;;;;41.95;24.60;;;;;;;;;;5080900;28;20419;-81
2023/12/05 12:18:25;;;;;;;39.35;23.30;;;;;;;;;;5093670;28;20443;-82
2023/12/05 12:20:52;;;;;;;40.10;23.98;;;;;;;;;;5075500;28;20989;-82
2023/12/05 12:23:18;;;;;;;43.65;24.08;;;;;;;;;;5094361;28;20413;-82
2023/12/05 12:25:53;;;;;;;41.13;23.77;;;;;;;;;;5085853;28;20404;-79
2023/12/05 12:28:26;;;;;;;43.05;24.75;;;;;;;;;;5051847;28;20408;-82
2023/12/05 12:30:53;;;;;;;42.43;25.83;;;;;;;;;;5083590;28;20847;-80
2023/12/05 12:33:22;;;;;;;44.97;25.40;;;;;;;;;;5097161;27;21006;-82
2023/12/05 12:35:52;;;;;;;44.55;25.10;;;;;;;;;;5072239;28;20414;-81
2023/12/05 12:38:18;;;;;;;45.40;25.60;;;;;;;;;;5071616;28;20415;-82
2023/12/05 12:40:45;;;;;;;46.90;26.03;;;;;;;;;;5052031;28;21129;-81
2023/12/05 12:43:14;;;;;;;47.20;25.88;;;;;;;;;;5067568;28;20435;-81
2023/12/05 12:45:40;;;;;;;50.17;28.73;;;;;;;;;;5064734;28;20445;-82
2023/12/05 12:48:07;;;;;;;46.10;26.20;;;;;;;;;;5069067;28;20407;-81
2023/12/05 12:50:33;;;;;;;48.35;26.77;;;;;;;;;;5055941;28;20820;-82
2023/12/05 12:53:02;;;;;;;45.80;25.75;;;;;;;;;;5069191;28;20392;-81
2023/12/05 12:55:28;;;;;;;48.58;27.88;;;;;;;;;;5069657;28;20415;-82
2023/12/05 12:57:55;;;;;;;47.75;26.73;;;;;;;;;;5053891;28;20495;-81
2023/12/05 13:00:21;;;;;;;51.28;28.45;;;;;;;;;;5054273;28;20400;-83
2023/12/05 13:02:54;;;;;;;50.50;27.35;;;;;;;;;;5069257;28;20435;-82
2023/12/05 13:05:33;;;;;;;52.63;28.73;;;;;;;;;;5086910;28;20404;-83
2023/12/05 13:08:00;;;;;;;49.08;27.20;;;;;;;;;;5069710;28;20396;-82
2023/12/05 13:10:27;;;;;;;49.15;26.63;;;;;;;;;;5063924;28;20991;-82
2023/12/05 13:12:53;;;;;;;51.33;28.02;;;;;;;;;;5084394;28;20403;-82
2023/12/05 13:15:22;;;;;;;54.17;28.85;;;;;;;;;;5050684;28;20451;-82
2023/12/05 13:17:58;;;;;;;50.97;28.40;;;;;;;;;;5071875;28;20541;-82
2023/12/05 13:20:24;;;;;;;51.55;27.92;;;;;;;;;;5067479;28;20431;-82
2023/12/05 13:22:51;;;;;;;49.38;28.38;;;;;;;;;;5065800;28;20443;-82
2023/12/05 13:25:17;;;;;;;52.72;28.85;;;;;;;;;;5086285;28;20424;-82
2023/12/05 13:27:43;;;;;;;53.13;28.20;;;;;;;;;;5060719;28;20436;-82
2023/12/05 13:30:10;;;;;;;50.55;27.95;;;;;;;;;;5066729;28;20427;-82
2023/12/05 13:32:36;;;;;;;55.28;31.52;;;;;;;;;;5082243;28;20419;-81
2023/12/05 13:35:02;;;;;;;52.83;27.77;;;;;;;;;;5064447;28;20765;-82
2023/12/05 13:37:28;;;;;;;56.30;30.13;;;;;;;;;;5059020;28;20450;-81
2023/12/05 13:39:54;;;;;;;54.63;30.20;;;;;;;;;;5075755;28;20454;-81
2023/12/05 13:42:20;;;;;;;53.27;29.67;;;;;;;;;;5094080;28;20421;-81
2023/12/05 13:44:46;;;;;;;53.08;29.85;;;;;;;;;;5078741;28;20509;-82
2023/12/05 13:47:12;;;;;;;54.95;29.60;;;;;;;;;;5084718;28;20637;-83
2023/12/05 13:49:38;;;;;;;53.80;28.40;;;;;;;;;;5065436;28;20436;-82
2023/12/05 13:52:04;;;;;;;52.13;28.77;;;;;;;;;;5073211;28;20418;-82
2023/12/05 13:54:30;;;;;;;56.87;29.30;;;;;;;;;;5084759;28;20478;-82
2023/12/05 13:56:56;;;;;;;56.45;29.70;;;;;;;;;;5073222;28;20431;-82
2023/12/05 13:59:22;;;;;;;56.40;29.95;;;;;;;;;;5066282;28;20446;-83
2023/12/05 14:01:49;;;;;;;56.25;29.85;;;;;;;;;;5089373;28;20471;-82
2023/12/05 14:04:18;;;;;;;55.33;30.23;;;;;;;;;;5055677;28;20435;-82
2023/12/05 14:06:44;;;;;;;52.67;28.90;;;;;;;;;;5101401;28;20494;-82
2023/12/05 14:09:11;;;;;;;55.20;29.13;;;;;;;;;;5083196;28;20501;-82
2023/12/05 14:11:38;;;;;;;56.00;30.23;;;;;;;;;;5067673;28;20816;-83
2023/12/05 14:14:05;;;;;;;56.92;30.15;;;;;;;;;;5067872;28;20911;-83
2023/12/05 14:16:31;;;;;;;58.75;30.17;;;;;;;;;;5086980;28;20421;-82